sensor_id;sensor_type;location;lat;lon;timestamp;temperature;humidity
19363;DHT22;9817;50.80926400;5.16316200;2023-05-07T00:00:35;17.20;99.90
19363;DHT22;9817;50.80926400;5.16316200;2023-05-07T00:03:00;17.10;99.90
19363;DHT22;9817;50.80926400;5.16316200;2023-05-07T00:05:26;17.10;99.90
19363;DHT22;9817;50.80926400;5.16316200;2023-05-07T00:07:52;17.00;99.90
19363;DHT22;9817;50.80926400;5.16316200;2023-05-07T00:10:18;17.00;99.90
19363;DHT22;9817;50.80926400;5.16316200;2023-05-07T00:12:44;17.10;99.90
19363;DHT22;9817;50.80926400;5.16316200;2023-05-07T00:15:10;17.20;99.90
19363;DHT22;9817;50.80926400;5.16316200;2023-05-07T00:17:36;17.20;99.90
19363;DHT22;9817;50.80926400;5.16316200;2023-05-07T00:20:03;17.20;99.90
19363;DHT22;9817;50.80926400;5.16316200;2023-05-07T00:22:29;17.30;99.90
19363;DHT22;9817;50.80926400;5.16316200;2023-05-07T00:24:55;17.30;99.90
19363;DHT22;9817;50.80926400;5.16316200;2023-05-07T00:27:22;17.40;99.90
19363;DHT22;9817;50.80926400;5.16316200;2023-05-07T00:29:47;17.40;99.90
19363;DHT22;9817;50.80926400;5.16316200;2023-05-07T00:32:13;17.40;99.90
19363;DHT22;9817;50.80926400;5.16316200;2023-05-07T00:34:39;17.30;99.90
19363;DHT22;9817;50.80926400;5.16316200;2023-05-07T00:37:05;17.30;99.90
19363;DHT22;9817;50.80926400;5.16316200;2023-05-07T00:39:33;17.30;99.90
19363;DHT22;9817;50.80926400;5.16316200;2023-05-07T00:41:59;17.40;99.90
19363;DHT22;9817;50.80926400;5.16316200;2023-05-07T00:44:26;17.40;99.90
19363;DHT22;9817;50.80926400;5.16316200;2023-05-07T00:46:52;17.30;99.90
19363;DHT22;9817;50.80926400;5.16316200;2023-05-07T00:49:18;17.30;99.90
19363;DHT22;9817;50.80926400;5.16316200;2023-05-07T00:51:45;17.30;99.90
19363;DHT22;9817;50.80926400;5.16316200;2023-05-07T00:54:11;17.20;99.90
19363;DHT22;9817;50.80926400;5.16316200;2023-05-07T00:56:37;17.20;99.90
19363;DHT22;9817;50.80926400;5.16316200;2023-05-07T00:59:04;17.30;99.90
19363;DHT22;9817;50.80926400;5.16316200;2023-05-07T01:01:31;17.30;99.90
19363;DHT22;9817;50.80926400;5.16316200;2023-05-07T01:03:57;17.40;99.90
19363;DHT22;9817;50.80926400;5.16316200;2023-05-07T01:06:24;17.40;99.90
19363;DHT22;9817;50.80926400;5.16316200;2023-05-07T01:08:51;17.40;99.90
19363;DHT22;9817;50.80926400;5.16316200;2023-05-07T01:11:18;17.40;99.90
19363;DHT22;9817;50.80926400;5.16316200;2023-05-07T01:13:46;17.40;99.90
19363;DHT22;9817;50.80926400;5.16316200;2023-05-07T01:16:13;17.40;99.90
19363;DHT22;9817;50.80926400;5.16316200;2023-05-07T01:18:38;17.40;99.90
19363;DHT22;9817;50.80926400;5.16316200;2023-05-07T01:21:04;17.30;99.90
19363;DHT22;9817;50.80926400;5.16316200;2023-05-07T01:23:30;17.20;99.90
19363;DHT22;9817;50.80926400;5.16316200;2023-05-07T01:25:56;17.20;99.90
19363;DHT22;9817;50.80926400;5.16316200;2023-05-07T01:28:22;17.10;99.90
19363;DHT22;9817;50.80926400;5.16316200;2023-05-07T01:30:54;17.00;99.90
19363;DHT22;9817;50.80926400;5.16316200;2023-05-07T01:33:22;17.00;99.90
19363;DHT22;9817;50.80926400;5.16316200;2023-05-07T01:35:50;17.00;99.90
19363;DHT22;9817;50.80926400;5.16316200;2023-05-07T01:38:18;17.00;99.90
19363;DHT22;9817;50.80926400;5.16316200;2023-05-07T01:40:44;16.90;99.90
19363;DHT22;9817;50.80926400;5.16316200;2023-05-07T01:43:10;16.80;99.90
19363;DHT22;9817;50.80926400;5.16316200;2023-05-07T01:45:36;16.90;99.90
19363;DHT22;9817;50.80926400;5.16316200;2023-05-07T01:48:03;16.80;99.90
19363;DHT22;9817;50.80926400;5.16316200;2023-05-07T01:50:30;16.90;99.90
19363;DHT22;9817;50.80926400;5.16316200;2023-05-07T01:52:56;16.80;99.90
19363;DHT22;9817;50.80926400;5.16316200;2023-05-07T01:55:22;16.80;99.90
19363;DHT22;9817;50.80926400;5.16316200;2023-05-07T01:57:48;16.80;99.90
19363;DHT22;9817;50.80926400;5.16316200;2023-05-07T02:00:13;16.60;99.90
19363;DHT22;9817;50.80926400;5.16316200;2023-05-07T02:26:36;16.90;99.90
19363;DHT22;9817;50.80926400;5.16316200;2023-05-07T02:29:02;16.90;99.90
19363;DHT22;9817;50.80926400;5.16316200;2023-05-07T02:31:27;17.00;99.90
19363;DHT22;9817;50.80926400;5.16316200;2023-05-07T02:33:53;17.00;99.90
19363;DHT22;9817;50.80926400;5.16316200;2023-05-07T02:36:19;16.90;99.90
19363;DHT22;9817;50.80926400;5.16316200;2023-05-07T02:38:44;17.00;99.90
19363;DHT22;9817;50.80926400;5.16316200;2023-05-07T02:41:10;17.00;99.90
19363;DHT22;9817;50.80926400;5.16316200;2023-05-07T02:43:36;17.10;99.90
19363;DHT22;9817;50.80926400;5.16316200;2023-05-07T02:46:06;17.00;99.90
19363;DHT22;9817;50.80926400;5.16316200;2023-05-07T02:48:32;17.00;99.90
19363;DHT22;9817;50.80926400;5.16316200;2023-05-07T02:50:59;16.90;99.90
19363;DHT22;9817;50.80926400;5.16316200;2023-05-07T02:53:25;16.80;99.90
19363;DHT22;9817;50.80926400;5.16316200;2023-05-07T02:55:53;17.00;99.90
19363;DHT22;9817;50.80926400;5.16316200;2023-05-07T02:58:18;17.00;99.90
19363;DHT22;9817;50.80926400;5.16316200;2023-05-07T03:00:44;17.00;99.90
19363;DHT22;9817;50.80926400;5.16316200;2023-05-07T03:03:10;17.00;99.90
19363;DHT22;9817;50.80926400;5.16316200;2023-05-07T03:05:36;17.00;99.90
19363;DHT22;9817;50.80926400;5.16316200;2023-05-07T03:08:02;17.00;99.90
19363;DHT22;9817;50.80926400;5.16316200;2023-05-07T03:10:28;17.00;99.90
19363;DHT22;9817;50.80926400;5.16316200;2023-05-07T03:12:53;17.10;99.90
19363;DHT22;9817;50.80926400;5.16316200;2023-05-07T03:15:19;17.10;99.90
19363;DHT22;9817;50.80926400;5.16316200;2023-05-07T03:17:45;17.10;99.90
19363;DHT22;9817;50.80926400;5.16316200;2023-05-07T03:20:11;17.10;99.90
19363;DHT22;9817;50.80926400;5.16316200;2023-05-07T03:22:36;17.10;99.90
19363;DHT22;9817;50.80926400;5.16316200;2023-05-07T03:25:02;17.10;99.90
19363;DHT22;9817;50.80926400;5.16316200;2023-05-07T03:27:28;17.10;99.90
19363;DHT22;9817;50.80926400;5.16316200;2023-05-07T03:29:53;17.10;99.90
19363;DHT22;9817;50.80926400;5.16316200;2023-05-07T03:32:19;17.10;99.90
19363;DHT22;9817;50.80926400;5.16316200;2023-05-07T03:34:44;17.00;99.90
19363;DHT22;9817;50.80926400;5.16316200;2023-05-07T03:37:10;16.90;99.90
19363;DHT22;9817;50.80926400;5.16316200;2023-05-07T03:39:36;16.90;99.90
19363;DHT22;9817;50.80926400;5.16316200;2023-05-07T03:42:01;16.90;99.90
19363;DHT22;9817;50.80926400;5.16316200;2023-05-07T03:44:27;16.90;99.90
19363;DHT22;9817;50.80926400;5.16316200;2023-05-07T03:46:53;16.90;99.90
19363;DHT22;9817;50.80926400;5.16316200;2023-05-07T03:49:19;16.90;99.90
19363;DHT22;9817;50.80926400;5.16316200;2023-05-07T03:51:44;16.90;99.90
19363;DHT22;9817;50.80926400;5.16316200;2023-05-07T03:54:10;16.90;99.90
19363;DHT22;9817;50.80926400;5.16316200;2023-05-07T03:56:36;16.90;99.90
19363;DHT22;9817;50.80926400;5.16316200;2023-05-07T03:59:02;16.90;99.90
19363;DHT22;9817;50.80926400;5.16316200;2023-05-07T04:01:28;16.80;99.90
19363;DHT22;9817;50.80926400;5.16316200;2023-05-07T04:03:54;16.80;99.90
19363;DHT22;9817;50.80926400;5.16316200;2023-05-07T04:06:19;16.80;99.90
19363;DHT22;9817;50.80926400;5.16316200;2023-05-07T04:08:46;16.80;99.90
19363;DHT22;9817;50.80926400;5.16316200;2023-05-07T04:11:11;16.70;99.90
19363;DHT22;9817;50.80926400;5.16316200;2023-05-07T04:13:37;16.70;99.90
19363;DHT22;9817;50.80926400;5.16316200;2023-05-07T04:16:03;16.70;99.90
19363;DHT22;9817;50.80926400;5.16316200;2023-05-07T04:18:29;16.80;99.90
19363;DHT22;9817;50.80926400;5.16316200;2023-05-07T04:20:55;16.80;99.90
19363;DHT22;9817;50.80926400;5.16316200;2023-05-07T04:23:21;16.80;99.90
19363;DHT22;9817;50.80926400;5.16316200;2023-05-07T04:25:46;16.80;99.90
19363;DHT22;9817;50.80926400;5.16316200;2023-05-07T04:28:12;16.70;99.90
19363;DHT22;9817;50.80926400;5.16316200;2023-05-07T04:30:38;16.80;99.90
19363;DHT22;9817;50.80926400;5.16316200;2023-05-07T04:33:04;16.90;99.90
19363;DHT22;9817;50.80926400;5.16316200;2023-05-07T04:35:30;16.90;99.90
19363;DHT22;9817;50.80926400;5.16316200;2023-05-07T04:37:56;16.90;99.90
19363;DHT22;9817;50.80926400;5.16316200;2023-05-07T04:40:21;17.00;99.90
19363;DHT22;9817;50.80926400;5.16316200;2023-05-07T04:42:47;17.00;99.90
19363;DHT22;9817;50.80926400;5.16316200;2023-05-07T04:45:13;17.00;99.90
19363;DHT22;9817;50.80926400;5.16316200;2023-05-07T04:47:38;17.10;99.90
19363;DHT22;9817;50.80926400;5.16316200;2023-05-07T04:50:06;17.10;99.90
19363;DHT22;9817;50.80926400;5.16316200;2023-05-07T04:52:32;17.10;99.90
19363;DHT22;9817;50.80926400;5.16316200;2023-05-07T04:54:59;17.10;99.90
19363;DHT22;9817;50.80926400;5.16316200;2023-05-07T04:57:26;17.20;99.90
19363;DHT22;9817;50.80926400;5.16316200;2023-05-07T04:59:52;17.20;99.90
19363;DHT22;9817;50.80926400;5.16316200;2023-05-07T05:02:17;17.30;99.90
19363;DHT22;9817;50.80926400;5.16316200;2023-05-07T05:04:43;17.30;99.90
19363;DHT22;9817;50.80926400;5.16316200;2023-05-07T05:07:09;17.40;99.90
19363;DHT22;9817;50.80926400;5.16316200;2023-05-07T05:09:34;17.40;99.90
19363;DHT22;9817;50.80926400;5.16316200;2023-05-07T05:12:00;17.50;99.90
19363;DHT22;9817;50.80926400;5.16316200;2023-05-07T05:14:26;17.60;99.90
19363;DHT22;9817;50.80926400;5.16316200;2023-05-07T05:16:51;17.70;99.90
19363;DHT22;9817;50.80926400;5.16316200;2023-05-07T05:19:17;17.70;99.90
19363;DHT22;9817;50.80926400;5.16316200;2023-05-07T05:21:42;17.90;99.90
19363;DHT22;9817;50.80926400;5.16316200;2023-05-07T05:24:08;17.90;99.90
19363;DHT22;9817;50.80926400;5.16316200;2023-05-07T05:26:34;18.00;99.90
19363;DHT22;9817;50.80926400;5.16316200;2023-05-07T05:29:00;18.00;99.90
19363;DHT22;9817;50.80926400;5.16316200;2023-05-07T05:31:25;18.00;99.90
19363;DHT22;9817;50.80926400;5.16316200;2023-05-07T05:33:51;18.00;99.90
19363;DHT22;9817;50.80926400;5.16316200;2023-05-07T05:36:17;18.00;99.90
19363;DHT22;9817;50.80926400;5.16316200;2023-05-07T05:38:43;18.10;99.90
19363;DHT22;9817;50.80926400;5.16316200;2023-05-07T05:41:09;18.30;99.90
19363;DHT22;9817;50.80926400;5.16316200;2023-05-07T05:43:35;18.30;99.90
19363;DHT22;9817;50.80926400;5.16316200;2023-05-07T05:46:01;18.50;99.90
19363;DHT22;9817;50.80926400;5.16316200;2023-05-07T05:48:26;18.60;99.90
19363;DHT22;9817;50.80926400;5.16316200;2023-05-07T05:50:52;18.70;99.90
19363;DHT22;9817;50.80926400;5.16316200;2023-05-07T05:53:18;18.80;99.90
19363;DHT22;9817;50.80926400;5.16316200;2023-05-07T05:55:43;18.80;99.90
19363;DHT22;9817;50.80926400;5.16316200;2023-05-07T05:58:09;18.90;99.90
19363;DHT22;9817;50.80926400;5.16316200;2023-05-07T06:00:35;19.10;99.90
19363;DHT22;9817;50.80926400;5.16316200;2023-05-07T06:03:01;19.10;99.90
19363;DHT22;9817;50.80926400;5.16316200;2023-05-07T06:05:26;19.20;99.90
19363;DHT22;9817;50.80926400;5.16316200;2023-05-07T06:07:52;19.50;99.90
19363;DHT22;9817;50.80926400;5.16316200;2023-05-07T06:10:17;19.70;99.90
19363;DHT22;9817;50.80926400;5.16316200;2023-05-07T06:12:43;20.00;99.90
19363;DHT22;9817;50.80926400;5.16316200;2023-05-07T06:15:10;20.30;99.90
19363;DHT22;9817;50.80926400;5.16316200;2023-05-07T06:17:35;20.30;99.90
19363;DHT22;9817;50.80926400;5.16316200;2023-05-07T06:20:01;20.30;99.90
19363;DHT22;9817;50.80926400;5.16316200;2023-05-07T06:22:27;20.40;99.90
19363;DHT22;9817;50.80926400;5.16316200;2023-05-07T06:24:52;20.50;99.90
19363;DHT22;9817;50.80926400;5.16316200;2023-05-07T06:27:18;20.40;99.90
19363;DHT22;9817;50.80926400;5.16316200;2023-05-07T06:29:43;20.40;99.90
19363;DHT22;9817;50.80926400;5.16316200;2023-05-07T06:32:11;20.40;99.90
19363;DHT22;9817;50.80926400;5.16316200;2023-05-07T06:34:37;20.30;99.90
19363;DHT22;9817;50.80926400;5.16316200;2023-05-07T06:37:03;20.20;99.90
19363;DHT22;9817;50.80926400;5.16316200;2023-05-07T06:39:28;20.10;99.90
19363;DHT22;9817;50.80926400;5.16316200;2023-05-07T06:41:54;19.90;99.90
19363;DHT22;9817;50.80926400;5.16316200;2023-05-07T06:44:20;19.90;99.90
19363;DHT22;9817;50.80926400;5.16316200;2023-05-07T06:46:46;19.90;99.90
19363;DHT22;9817;50.80926400;5.16316200;2023-05-07T06:49:15;19.80;99.90
19363;DHT22;9817;50.80926400;5.16316200;2023-05-07T06:51:40;19.90;99.90
19363;DHT22;9817;50.80926400;5.16316200;2023-05-07T06:54:06;20.10;99.90
19363;DHT22;9817;50.80926400;5.16316200;2023-05-07T06:56:33;20.30;99.90
19363;DHT22;9817;50.80926400;5.16316200;2023-05-07T06:59:03;20.40;99.90
19363;DHT22;9817;50.80926400;5.16316200;2023-05-07T07:01:29;20.50;99.90
19363;DHT22;9817;50.80926400;5.16316200;2023-05-07T07:03:55;20.50;99.90
19363;DHT22;9817;50.80926400;5.16316200;2023-05-07T07:06:20;20.60;99.90
19363;DHT22;9817;50.80926400;5.16316200;2023-05-07T07:08:46;20.60;99.90
19363;DHT22;9817;50.80926400;5.16316200;2023-05-07T07:11:12;20.60;99.90
19363;DHT22;9817;50.80926400;5.16316200;2023-05-07T07:13:37;20.60;99.90
19363;DHT22;9817;50.80926400;5.16316200;2023-05-07T07:16:03;20.60;99.90
19363;DHT22;9817;50.80926400;5.16316200;2023-05-07T07:18:29;20.40;99.90
19363;DHT22;9817;50.80926400;5.16316200;2023-05-07T07:20:55;20.30;99.90
19363;DHT22;9817;50.80926400;5.16316200;2023-05-07T07:23:21;20.20;99.90
19363;DHT22;9817;50.80926400;5.16316200;2023-05-07T07:25:46;20.30;99.90
19363;DHT22;9817;50.80926400;5.16316200;2023-05-07T07:28:12;20.50;99.90
19363;DHT22;9817;50.80926400;5.16316200;2023-05-07T07:30:39;20.60;99.90
19363;DHT22;9817;50.80926400;5.16316200;2023-05-07T07:33:05;20.70;99.90
19363;DHT22;9817;50.80926400;5.16316200;2023-05-07T07:35:34;20.90;99.90
19363;DHT22;9817;50.80926400;5.16316200;2023-05-07T07:37:59;21.10;99.90
19363;DHT22;9817;50.80926400;5.16316200;2023-05-07T07:40:27;21.10;99.90
19363;DHT22;9817;50.80926400;5.16316200;2023-05-07T07:42:53;21.20;99.90
19363;DHT22;9817;50.80926400;5.16316200;2023-05-07T07:45:19;21.50;99.90
19363;DHT22;9817;50.80926400;5.16316200;2023-05-07T07:47:44;21.50;99.90
19363;DHT22;9817;50.80926400;5.16316200;2023-05-07T07:50:10;21.70;99.90
19363;DHT22;9817;50.80926400;5.16316200;2023-05-07T07:52:36;21.70;99.90
19363;DHT22;9817;50.80926400;5.16316200;2023-05-07T07:55:02;22.10;99.90
19363;DHT22;9817;50.80926400;5.16316200;2023-05-07T07:57:28;22.60;99.90
19363;DHT22;9817;50.80926400;5.16316200;2023-05-07T07:59:54;23.20;99.90
19363;DHT22;9817;50.80926400;5.16316200;2023-05-07T08:02:19;23.50;99.90
19363;DHT22;9817;50.80926400;5.16316200;2023-05-07T08:04:45;23.50;99.90
19363;DHT22;9817;50.80926400;5.16316200;2023-05-07T08:07:12;24.00;99.90
19363;DHT22;9817;50.80926400;5.16316200;2023-05-07T08:09:38;24.70;99.90
19363;DHT22;9817;50.80926400;5.16316200;2023-05-07T08:12:07;24.90;99.90
19363;DHT22;9817;50.80926400;5.16316200;2023-05-07T08:14:34;25.50;99.90
19363;DHT22;9817;50.80926400;5.16316200;2023-05-07T08:16:59;25.80;99.90
19363;DHT22;9817;50.80926400;5.16316200;2023-05-07T08:19:26;26.20;99.90
19363;DHT22;9817;50.80926400;5.16316200;2023-05-07T08:21:51;27.00;99.90
19363;DHT22;9817;50.80926400;5.16316200;2023-05-07T08:24:17;27.60;99.90
19363;DHT22;9817;50.80926400;5.16316200;2023-05-07T08:26:43;28.20;99.90
19363;DHT22;9817;50.80926400;5.16316200;2023-05-07T08:29:09;28.20;99.90
19363;DHT22;9817;50.80926400;5.16316200;2023-05-07T08:31:35;28.90;99.90
19363;DHT22;9817;50.80926400;5.16316200;2023-05-07T08:34:01;28.60;99.90
19363;DHT22;9817;50.80926400;5.16316200;2023-05-07T08:36:26;27.80;99.90
19363;DHT22;9817;50.80926400;5.16316200;2023-05-07T08:38:54;27.70;99.90
19363;DHT22;9817;50.80926400;5.16316200;2023-05-07T08:41:20;27.40;99.90
19363;DHT22;9817;50.80926400;5.16316200;2023-05-07T08:43:50;26.60;99.90
19363;DHT22;9817;50.80926400;5.16316200;2023-05-07T08:46:18;26.70;99.90
19363;DHT22;9817;50.80926400;5.16316200;2023-05-07T08:48:45;27.60;99.90
19363;DHT22;9817;50.80926400;5.16316200;2023-05-07T08:51:15;28.30;99.90
19363;DHT22;9817;50.80926400;5.16316200;2023-05-07T08:53:41;27.90;99.90
19363;DHT22;9817;50.80926400;5.16316200;2023-05-07T08:56:09;26.70;99.90
19363;DHT22;9817;50.80926400;5.16316200;2023-05-07T08:58:35;26.20;99.90
19363;DHT22;9817;50.80926400;5.16316200;2023-05-07T09:01:05;25.70;99.90
19363;DHT22;9817;50.80926400;5.16316200;2023-05-07T09:03:32;25.50;99.90
19363;DHT22;9817;50.80926400;5.16316200;2023-05-07T09:05:58;25.40;99.90
19363;DHT22;9817;50.80926400;5.16316200;2023-05-07T09:08:27;25.10;99.90
19363;DHT22;9817;50.80926400;5.16316200;2023-05-07T09:10:53;24.40;99.90
19363;DHT22;9817;50.80926400;5.16316200;2023-05-07T09:13:19;24.10;99.90
19363;DHT22;9817;50.80926400;5.16316200;2023-05-07T09:15:45;24.00;99.90
19363;DHT22;9817;50.80926400;5.16316200;2023-05-07T09:18:12;23.90;99.90
19363;DHT22;9817;50.80926400;5.16316200;2023-05-07T09:20:38;23.70;99.90
19363;DHT22;9817;50.80926400;5.16316200;2023-05-07T09:23:05;23.60;99.90
19363;DHT22;9817;50.80926400;5.16316200;2023-05-07T09:25:33;23.40;99.90
19363;DHT22;9817;50.80926400;5.16316200;2023-05-07T09:28:00;23.10;99.90
19363;DHT22;9817;50.80926400;5.16316200;2023-05-07T09:30:30;22.80;99.90
19363;DHT22;9817;50.80926400;5.16316200;2023-05-07T09:33:00;22.90;99.90
19363;DHT22;9817;50.80926400;5.16316200;2023-05-07T09:35:27;22.60;99.90
19363;DHT22;9817;50.80926400;5.16316200;2023-05-07T09:37:58;22.40;99.90
19363;DHT22;9817;50.80926400;5.16316200;2023-05-07T09:40:26;22.30;99.90
19363;DHT22;9817;50.80926400;5.16316200;2023-05-07T09:42:52;22.20;99.90
19363;DHT22;9817;50.80926400;5.16316200;2023-05-07T09:45:28;22.00;99.90
19363;DHT22;9817;50.80926400;5.16316200;2023-05-07T09:47:58;22.00;99.90
19363;DHT22;9817;50.80926400;5.16316200;2023-05-07T09:50:28;21.80;99.90
19363;DHT22;9817;50.80926400;5.16316200;2023-05-07T09:52:55;21.80;99.90
19363;DHT22;9817;50.80926400;5.16316200;2023-05-07T09:55:21;21.80;99.90
19363;DHT22;9817;50.80926400;5.16316200;2023-05-07T09:57:52;21.70;99.90
19363;DHT22;9817;50.80926400;5.16316200;2023-05-07T10:00:21;21.60;99.90
19363;DHT22;9817;50.80926400;5.16316200;2023-05-07T10:02:52;21.70;99.90
19363;DHT22;9817;50.80926400;5.16316200;2023-05-07T10:05:24;21.80;99.90
19363;DHT22;9817;50.80926400;5.16316200;2023-05-07T10:07:51;21.80;99.90
19363;DHT22;9817;50.80926400;5.16316200;2023-05-07T10:10:18;21.60;99.90
19363;DHT22;9817;50.80926400;5.16316200;2023-05-07T10:12:45;21.50;99.90
19363;DHT22;9817;50.80926400;5.16316200;2023-05-07T10:15:11;21.30;99.90
19363;DHT22;9817;50.80926400;5.16316200;2023-05-07T10:17:40;21.10;99.90
19363;DHT22;9817;50.80926400;5.16316200;2023-05-07T10:20:07;21.00;99.90
19363;DHT22;9817;50.80926400;5.16316200;2023-05-07T10:22:44;21.00;99.90
19363;DHT22;9817;50.80926400;5.16316200;2023-05-07T10:25:20;21.20;99.90
19363;DHT22;9817;50.80926400;5.16316200;2023-05-07T10:27:48;21.00;99.90
19363;DHT22;9817;50.80926400;5.16316200;2023-05-07T10:30:40;20.90;99.90
19363;DHT22;9817;50.80926400;5.16316200;2023-05-07T10:33:10;21.00;99.90
19363;DHT22;9817;50.80926400;5.16316200;2023-05-07T10:35:45;20.70;99.90
19363;DHT22;9817;50.80926400;5.16316200;2023-05-07T10:38:12;20.90;99.90
19363;DHT22;9817;50.80926400;5.16316200;2023-05-07T10:40:38;21.00;99.90
19363;DHT22;9817;50.80926400;5.16316200;2023-05-07T10:43:04;21.10;99.90
19363;DHT22;9817;50.80926400;5.16316200;2023-05-07T10:45:31;21.00;99.90
19363;DHT22;9817;50.80926400;5.16316200;2023-05-07T10:48:16;21.00;99.90
19363;DHT22;9817;50.80926400;5.16316200;2023-05-07T10:50:43;21.00;99.90
19363;DHT22;9817;50.80926400;5.16316200;2023-05-07T10:55:49;21.00;99.90
19363;DHT22;9817;50.80926400;5.16316200;2023-05-07T11:00:47;21.10;99.90
19363;DHT22;9817;50.80926400;5.16316200;2023-05-07T11:03:14;21.00;99.90
19363;DHT22;9817;50.80926400;5.16316200;2023-05-07T11:05:41;21.10;99.90
19363;DHT22;9817;50.80926400;5.16316200;2023-05-07T11:08:08;20.90;99.90
19363;DHT22;9817;50.80926400;5.16316200;2023-05-07T11:10:55;20.80;99.90
19363;DHT22;9817;50.80926400;5.16316200;2023-05-07T11:13:41;20.90;99.90
19363;DHT22;9817;50.80926400;5.16316200;2023-05-07T11:16:23;20.80;99.90
19363;DHT22;9817;50.80926400;5.16316200;2023-05-07T11:18:49;20.60;99.90
19363;DHT22;9817;50.80926400;5.16316200;2023-05-07T11:21:34;20.70;99.90
19363;DHT22;9817;50.80926400;5.16316200;2023-05-07T11:24:01;20.70;99.90
19363;DHT22;9817;50.80926400;5.16316200;2023-05-07T11:26:29;20.90;99.90
19363;DHT22;9817;50.80926400;5.16316200;2023-05-07T11:28:55;20.90;99.90
19363;DHT22;9817;50.80926400;5.16316200;2023-05-07T11:31:24;21.00;99.90
19363;DHT22;9817;50.80926400;5.16316200;2023-05-07T11:33:52;21.00;99.90
19363;DHT22;9817;50.80926400;5.16316200;2023-05-07T11:36:18;20.80;99.90
19363;DHT22;9817;50.80926400;5.16316200;2023-05-07T11:38:45;20.80;99.90
19363;DHT22;9817;50.80926400;5.16316200;2023-05-07T11:41:10;20.90;99.90
19363;DHT22;9817;50.80926400;5.16316200;2023-05-07T11:43:36;21.10;99.90
19363;DHT22;9817;50.80926400;5.16316200;2023-05-07T11:46:08;21.20;99.90
19363;DHT22;9817;50.80926400;5.16316200;2023-05-07T11:48:34;21.20;99.90
19363;DHT22;9817;50.80926400;5.16316200;2023-05-07T11:51:01;21.30;99.90
19363;DHT22;9817;50.80926400;5.16316200;2023-05-07T11:53:34;21.30;99.90
19363;DHT22;9817;50.80926400;5.16316200;2023-05-07T11:56:02;21.40;99.90
19363;DHT22;9817;50.80926400;5.16316200;2023-05-07T11:58:31;21.30;99.90
19363;DHT22;9817;50.80926400;5.16316200;2023-05-07T12:00:57;21.50;99.90
19363;DHT22;9817;50.80926400;5.16316200;2023-05-07T12:03:22;21.50;99.90
19363;DHT22;9817;50.80926400;5.16316200;2023-05-07T12:05:48;21.50;99.90
19363;DHT22;9817;50.80926400;5.16316200;2023-05-07T12:08:19;21.50;99.90
19363;DHT22;9817;50.80926400;5.16316200;2023-05-07T12:10:47;21.40;99.90
19363;DHT22;9817;50.80926400;5.16316200;2023-05-07T12:13:24;21.60;99.90
19363;DHT22;9817;50.80926400;5.16316200;2023-05-07T12:15:54;21.70;99.90
19363;DHT22;9817;50.80926400;5.16316200;2023-05-07T12:18:21;21.70;99.90
19363;DHT22;9817;50.80926400;5.16316200;2023-05-07T12:20:48;21.80;99.90
19363;DHT22;9817;50.80926400;5.16316200;2023-05-07T12:23:14;21.90;99.90
19363;DHT22;9817;50.80926400;5.16316200;2023-05-07T12:25:41;21.70;99.90
19363;DHT22;9817;50.80926400;5.16316200;2023-05-07T12:28:16;21.60;99.90
19363;DHT22;9817;50.80926400;5.16316200;2023-05-07T12:30:43;21.80;99.90
19363;DHT22;9817;50.80926400;5.16316200;2023-05-07T12:33:09;21.80;99.90
19363;DHT22;9817;50.80926400;5.16316200;2023-05-07T12:35:40;21.80;99.90
19363;DHT22;9817;50.80926400;5.16316200;2023-05-07T12:38:13;21.90;99.90
19363;DHT22;9817;50.80926400;5.16316200;2023-05-07T12:40:50;21.80;99.90
19363;DHT22;9817;50.80926400;5.16316200;2023-05-07T12:43:27;22.00;99.90
19363;DHT22;9817;50.80926400;5.16316200;2023-05-07T12:45:58;21.90;99.90
19363;DHT22;9817;50.80926400;5.16316200;2023-05-07T12:48:25;21.80;99.90
19363;DHT22;9817;50.80926400;5.16316200;2023-05-07T12:51:00;21.60;99.90
19363;DHT22;9817;50.80926400;5.16316200;2023-05-07T12:53:27;21.60;99.90
19363;DHT22;9817;50.80926400;5.16316200;2023-05-07T12:55:55;21.60;99.90
19363;DHT22;9817;50.80926400;5.16316200;2023-05-07T12:58:32;21.60;99.90
19363;DHT22;9817;50.80926400;5.16316200;2023-05-07T13:01:00;21.60;99.90
19363;DHT22;9817;50.80926400;5.16316200;2023-05-07T13:03:30;21.70;99.90
19363;DHT22;9817;50.80926400;5.16316200;2023-05-07T13:06:01;21.80;99.90
19363;DHT22;9817;50.80926400;5.16316200;2023-05-07T13:08:34;21.70;99.90
19363;DHT22;9817;50.80926400;5.16316200;2023-05-07T13:11:02;21.60;99.90
19363;DHT22;9817;50.80926400;5.16316200;2023-05-07T13:13:30;21.80;99.90
19363;DHT22;9817;50.80926400;5.16316200;2023-05-07T13:15:56;21.90;99.90
19363;DHT22;9817;50.80926400;5.16316200;2023-05-07T13:18:21;22.00;99.90
19363;DHT22;9817;50.80926400;5.16316200;2023-05-07T13:20:47;22.00;99.90
19363;DHT22;9817;50.80926400;5.16316200;2023-05-07T13:23:13;22.00;99.90
19363;DHT22;9817;50.80926400;5.16316200;2023-05-07T13:25:38;22.00;99.90
19363;DHT22;9817;50.80926400;5.16316200;2023-05-07T13:28:04;22.10;99.90
19363;DHT22;9817;50.80926400;5.16316200;2023-05-07T13:30:30;22.20;99.90
19363;DHT22;9817;50.80926400;5.16316200;2023-05-07T13:32:56;22.40;99.90
19363;DHT22;9817;50.80926400;5.16316200;2023-05-07T13:35:22;22.50;99.90
19363;DHT22;9817;50.80926400;5.16316200;2023-05-07T13:37:48;22.40;99.90
19363;DHT22;9817;50.80926400;5.16316200;2023-05-07T13:40:14;22.30;99.90
19363;DHT22;9817;50.80926400;5.16316200;2023-05-07T13:42:40;22.10;99.90
19363;DHT22;9817;50.80926400;5.16316200;2023-05-07T13:45:07;22.20;99.90
19363;DHT22;9817;50.80926400;5.16316200;2023-05-07T13:47:33;22.10;99.90
19363;DHT22;9817;50.80926400;5.16316200;2023-05-07T13:49:58;22.40;99.90
19363;DHT22;9817;50.80926400;5.16316200;2023-05-07T13:52:24;22.70;99.90
19363;DHT22;9817;50.80926400;5.16316200;2023-05-07T13:54:50;22.90;99.90
19363;DHT22;9817;50.80926400;5.16316200;2023-05-07T13:57:17;22.70;99.90
19363;DHT22;9817;50.80926400;5.16316200;2023-05-07T13:59:43;22.60;99.90
19363;DHT22;9817;50.80926400;5.16316200;2023-05-07T14:02:09;22.70;99.90